Saint-Anselme, Canada
Current Conditions -  °F | °C
As of 9:00 AM on Friday 24 Oct 2014 (Local Time) from CYQB Reporting Station
Rain Showers Rain Showers  
Wind Chill: 41°   Ceiling: 10000
Heat Index: 45°   Visibility: 30mi
Dew Point: 36°   Wind: 7mph
Humidity: 71%   Direction: 60°ENE
Pressure: 29.9"   Gusts: NA
Location:  46.62°N, 70.97°W
Report Text: CYQB 241300Z 06006KT 30SM -SHRA FEW055 BKN100 07/02 A2990 RMK SC2AC5 SLP129
Loading
Personal Weather Stations






























Interactive Weather Map
Tropical Storm Tracking
New forecast layout! Learn more

10-Day Weather Forecast

Advertisements
Track Severe Weather on mobile